ETHF

Details ICAO ETHF
Name FRITZLAR
Region Germany - Military
Timezone Europe/Berlin (UTC+2.0)
Plans Departing 2
Arriving 0
Stats Elevation 566 ft / 173 m (AMSL)
Location 51.114464° 9.285960°
Runways 1
Magnetic Variation 2.611° E
Sunrise 2018-05-20 03:27:23 UTC / 2018-05-20 05:27:23 Local
Sunset 2018-05-20 19:14:13 UTC / 2018-05-20 21:14:13 Local
Advertisement - Login to hide

Runways

ID Width Length Bearing (true) Bearing (mag) Surface Threshold Offset Overrun Length
12 98 ft / 30 m 3,434 ft / 1,047 m 119.23° 116.62° Asphalt 0 ft / 0 m 0 ft / 0 m
30 98 ft / 30 m 3,434 ft / 1,047 m 299.24° 296.63° Asphalt 0 ft / 0 m 0 ft / 0 m

Map

Weather


0- 5 10 15 20 25 30 35+ Temperature / ° C

Clouds and Precipitation
Forecast for 2018-05-20 12:00 UTC. Updated 2 hours ago

Ground ~20,000 ft ~40,000 ft Winds

METAR

ETHF 201220Z AUTO 11008KT 9999 // ////// 22/06 Q1022 ///

TAF

Not found

Frequencies

Tower 122.10 MHz TWR
Approach 123.30 MHz RADAR
Approach 124.42 MHz LANGEN CON
Approach 135.60 MHz RADAR
Warning: Do not use this data for real-world aviation or navigation. No guarantee of current accuracy is given.